createdAt,value
2018-10-01T00:00:45.672Z,82.55
2018-10-01T00:03:14.838Z,82.26
2018-10-01T00:05:43.949Z,82.33
2018-10-01T00:08:13.067Z,82.48
2018-10-01T00:10:42.211Z,82.55
2018-10-01T00:13:11.318Z,82.38
2018-10-01T00:15:40.472Z,82.82
2018-10-01T00:18:09.631Z,83.10
2018-10-01T00:20:44.017Z,83.15
2018-10-01T00:23:13.125Z,82.51
2018-10-01T00:25:42.240Z,83.08
2018-10-01T00:28:11.364Z,82.96
2018-10-01T00:30:40.513Z,82.79
2018-10-01T00:33:09.661Z,82.79
2018-10-01T00:35:38.760Z,82.83
2018-10-01T00:38:07.936Z,83.14
2018-10-01T00:40:37.933Z,83.42
2018-10-01T00:43:07.065Z,83.32
2018-10-01T00:45:36.173Z,83.19
2018-10-01T00:48:05.322Z,83.11
2018-10-01T00:50:34.480Z,83.16
2018-10-01T00:53:03.647Z,83.14
2018-10-01T00:55:33.744Z,82.83
2018-10-01T00:58:02.919Z,83.24
2018-10-01T01:00:32.103Z,83.05
2018-10-01T01:03:01.530Z,83.18
2018-10-01T01:05:30.717Z,83.09
2018-10-01T01:07:59.808Z,83.04
2018-10-01T01:10:29.097Z,82.75
2018-10-01T01:12:58.274Z,83.12
2018-10-01T01:15:27.796Z,82.88
2018-10-01T01:17:56.949Z,82.78
2018-10-01T01:20:26.125Z,82.81
2018-10-01T01:22:55.507Z,82.99
2018-10-01T01:25:24.906Z,82.82
2018-10-01T01:27:54.146Z,82.98
2018-10-01T01:30:23.324Z,83.24
2018-10-01T01:32:52.480Z,82.85
2018-10-01T01:35:21.668Z,82.81
2018-10-01T01:37:51.016Z,82.48
2018-10-01T01:40:20.184Z,82.74
2018-10-01T01:42:49.384Z,82.07
2018-10-01T01:45:18.494Z,82.51
2018-10-01T01:47:47.864Z,82.54
2018-10-01T01:50:17.150Z,82.47
2018-10-01T01:52:46.323Z,82.44
2018-10-01T01:55:15.484Z,82.59
2018-10-01T01:57:44.637Z,82.56
2018-10-01T02:00:13.752Z,82.86
2018-10-01T02:02:42.911Z,82.99
2018-10-01T02:05:12.107Z,83.41
2018-10-01T02:07:41.324Z,84.20
2018-10-01T02:10:10.477Z,83.68
2018-10-01T02:12:39.701Z,83.94
2018-10-01T02:15:08.848Z,84.20
2018-10-01T02:17:38.025Z,84.31
2018-10-01T02:20:07.185Z,84.51
2018-10-01T02:22:36.516Z,84.68
2018-10-01T02:25:05.859Z,84.77
2018-10-01T02:27:35.061Z,84.88
2018-10-01T02:30:04.358Z,84.93
2018-10-01T02:32:33.511Z,84.85
2018-10-01T02:35:03.092Z,85.15
2018-10-01T02:37:32.548Z,84.53
2018-10-01T02:40:01.825Z,84.88
2018-10-01T02:42:31.047Z,85.09
2018-10-01T02:45:00.196Z,85.18
2018-10-01T02:47:29.390Z,85.25
2018-10-01T02:49:58.554Z,85.27
2018-10-01T02:52:33.278Z,85.31
2018-10-01T02:55:03.437Z,85.57
2018-10-01T02:57:32.893Z,85.37
2018-10-01T03:00:02.035Z,85.59
2018-10-01T03:02:31.177Z,85.38
2018-10-01T03:05:00.339Z,85.81
2018-10-01T03:07:29.480Z,85.57
2018-10-01T03:09:58.740Z,85.68
2018-10-01T03:12:27.925Z,85.60
2018-10-01T03:14:57.064Z,85.68
2018-10-01T03:17:26.252Z,85.42
2018-10-01T03:19:55.439Z,85.89
2018-10-01T03:22:25.613Z,85.76
2018-10-01T03:24:54.829Z,85.84
2018-10-01T03:27:24.046Z,85.64
2018-10-01T03:29:53.250Z,85.91
2018-10-01T03:32:22.420Z,85.83
2018-10-01T03:34:51.739Z,86.00
2018-10-01T03:37:20.886Z,85.86
2018-10-01T03:39:50.048Z,85.71
2018-10-01T03:42:19.242Z,85.60
2018-10-01T03:44:48.526Z,85.74
2018-10-01T03:47:17.971Z,85.57
2018-10-01T03:49:47.114Z,85.84
2018-10-01T03:52:16.272Z,85.78
2018-10-01T03:54:45.752Z,86.04
2018-10-01T03:57:14.880Z,85.93
2018-10-01T03:59:45.280Z,86.25
2018-10-01T04:02:14.428Z,85.90
2018-10-01T04:04:43.792Z,85.92
2018-10-01T04:07:12.955Z,86.10
2018-10-01T04:09:42.084Z,85.59
2018-10-01T04:12:11.304Z,85.61
2018-10-01T04:14:40.440Z,85.54
2018-10-01T04:17:09.593Z,85.83
2018-10-01T04:19:38.824Z,86.07
2018-10-01T04:22:07.952Z,85.96
2018-10-01T04:24:37.145Z,86.38
2018-10-01T04:27:06.312Z,85.90
2018-10-01T04:29:35.481Z,86.03
2018-10-01T04:32:04.965Z,86.05
2018-10-01T04:34:34.092Z,86.00
2018-10-01T04:37:03.212Z,85.84
2018-10-01T04:39:32.375Z,86.33
2018-10-01T04:42:01.544Z,86.30
2018-10-01T04:44:30.950Z,86.52
2018-10-01T04:47:00.092Z,86.36
2018-10-01T04:49:29.258Z,86.39
2018-10-01T04:51:58.403Z,86.22
2018-10-01T04:54:27.533Z,86.16
2018-10-01T04:56:56.704Z,86.40
2018-10-01T04:59:25.832Z,86.55
2018-10-01T05:01:54.977Z,86.86
2018-10-01T05:04:24.231Z,86.85
2018-10-01T05:06:53.408Z,87.00
2018-10-01T05:09:22.564Z,87.22
2018-10-01T05:11:51.708Z,87.04
2018-10-01T05:14:20.877Z,87.34
2018-10-01T05:16:50.082Z,87.71
2018-10-01T05:19:19.256Z,87.66
2018-10-01T05:21:48.612Z,87.77
2018-10-01T05:24:17.818Z,87.90
2018-10-01T05:26:47.045Z,88.07
2018-10-01T05:29:16.200Z,87.62
2018-10-01T05:31:45.419Z,87.04
2018-10-01T05:34:14.623Z,86.89
2018-10-01T05:36:43.789Z,86.64
2018-10-01T05:39:13.420Z,85.44
2018-10-01T05:41:42.594Z,84.78
2018-10-01T05:44:11.741Z,84.70
2018-10-01T05:46:41.793Z,85.43
2018-10-01T05:49:11.051Z,84.99
2018-10-01T05:51:40.181Z,85.04
2018-10-01T05:54:09.320Z,85.27
2018-10-01T05:56:38.467Z,85.32
2018-10-01T05:59:07.664Z,85.54
2018-10-01T06:01:36.883Z,85.95
2018-10-01T06:04:06.096Z,85.75
2018-10-01T06:06:35.311Z,85.49
2018-10-01T06:09:06.589Z,85.27
2018-10-01T06:11:35.990Z,85.58
2018-10-01T06:14:05.349Z,85.90
2018-10-01T06:16:34.507Z,85.94
2018-10-01T06:19:03.673Z,85.72
2018-10-01T06:21:33.003Z,85.79
2018-10-01T06:24:02.252Z,85.65
2018-10-01T06:26:31.523Z,85.38
2018-10-01T06:29:00.745Z,86.25
2018-10-01T06:34:19.951Z,86.29
2018-10-01T06:37:00.064Z,86.10
2018-10-01T06:39:29.425Z,85.96
2018-10-01T06:41:58.795Z,86.41
2018-10-01T06:44:27.934Z,86.48
2018-10-01T06:46:57.130Z,86.79
2018-10-01T06:49:26.304Z,86.72
2018-10-01T06:51:55.528Z,87.21
2018-10-01T06:54:24.719Z,87.15
2018-10-01T06:56:53.957Z,87.37
2018-10-01T06:59:23.091Z,87.21
2018-10-01T07:01:52.712Z,87.47
2018-10-01T07:04:21.904Z,87.58
2018-10-01T07:06:51.101Z,87.49
2018-10-01T07:09:20.318Z,88.01
2018-10-01T07:11:49.603Z,87.78
2018-10-01T07:14:18.747Z,87.69
2018-10-01T07:16:47.991Z,88.03
2018-10-01T07:19:17.184Z,87.92
2018-10-01T07:21:46.342Z,87.77
2018-10-01T07:24:15.558Z,88.07
2018-10-01T07:26:44.888Z,87.76
2018-10-01T07:29:14.109Z,88.15
2018-10-01T07:31:43.429Z,88.18
2018-10-01T07:34:12.584Z,88.15
2018-10-01T07:36:41.721Z,88.09
2018-10-01T07:39:10.924Z,87.91
2018-10-01T07:41:40.070Z,87.84
2018-10-01T07:44:09.489Z,87.74
2018-10-01T07:46:38.679Z,87.14
2018-10-01T07:49:07.852Z,86.73
2018-10-01T07:51:37.047Z,87.10
2018-10-01T07:54:06.240Z,86.91
2018-10-01T07:56:35.500Z,86.29
2018-10-01T07:59:04.696Z,86.08
2018-10-01T08:01:34.046Z,85.69
2018-10-01T08:04:03.235Z,86.21
2018-10-01T08:06:32.461Z,85.94
2018-10-01T08:09:01.630Z,86.26
2018-10-01T08:11:30.804Z,86.33
2018-10-01T08:14:00.103Z,85.29
2018-10-01T08:16:29.326Z,84.82
2018-10-01T08:18:58.480Z,84.92
2018-10-01T08:21:27.636Z,85.24
2018-10-01T08:23:56.877Z,85.26
2018-10-01T08:26:26.144Z,85.34
2018-10-01T08:28:55.329Z,85.46
2018-10-01T08:31:24.628Z,85.01
2018-10-01T08:33:53.836Z,84.53
2018-10-01T08:36:23.036Z,84.12
2018-10-01T08:38:52.242Z,83.11
2018-10-01T08:41:21.443Z,83.78
2018-10-01T08:43:50.692Z,82.84
2018-10-01T08:46:19.890Z,81.60
2018-10-01T08:48:54.276Z,82.12
2018-10-01T08:51:29.103Z,82.41
2018-10-01T08:54:07.404Z,82.18
2018-10-01T08:56:36.571Z,81.87
2018-10-01T08:59:05.871Z,81.87
2018-10-01T09:01:34.999Z,81.64
2018-10-01T09:04:04.179Z,81.24
2018-10-01T09:06:33.829Z,79.42
2018-10-01T09:09:03.167Z,78.84
2018-10-01T09:11:32.374Z,76.77
2018-10-01T09:14:01.591Z,76.23
2018-10-01T09:16:30.777Z,76.57
2018-10-01T09:18:59.969Z,76.77
2018-10-01T09:21:29.267Z,75.13
2018-10-01T09:23:58.936Z,74.83
2018-10-01T09:26:28.301Z,73.43
2018-10-01T09:28:57.463Z,74.02
2018-10-01T09:31:26.664Z,72.60
2018-10-01T09:33:55.826Z,71.08
2018-10-01T09:36:25.740Z,72.80
2018-10-01T09:38:55.020Z,73.50
2018-10-01T09:41:24.211Z,72.00
2018-10-01T09:43:53.381Z,70.28
2018-10-01T09:46:22.598Z,70.89
2018-10-01T09:48:51.754Z,68.92
2018-10-01T09:51:20.916Z,69.24
2018-10-01T09:53:50.196Z,69.35
2018-10-01T09:56:19.363Z,67.80
2018-10-01T09:58:48.587Z,67.93
2018-10-01T10:01:17.808Z,66.43
2018-10-01T10:03:47.047Z,63.57
2018-10-01T10:06:16.232Z,64.33
2018-10-01T10:08:45.366Z,64.02
2018-10-01T10:11:14.560Z,62.68
2018-10-01T10:13:43.775Z,64.68
2018-10-01T10:16:13.033Z,64.66
2018-10-01T10:18:42.900Z,64.73
2018-10-01T10:21:12.077Z,65.88
2018-10-01T10:23:41.264Z,65.96
2018-10-01T10:26:10.435Z,67.55
2018-10-01T10:28:40.241Z,68.69
2018-10-01T10:31:09.548Z,71.57
2018-10-01T10:33:38.709Z,73.07
2018-10-01T10:36:08.098Z,73.49
2018-10-01T10:38:37.387Z,72.58
2018-10-01T10:41:06.568Z,74.15
2018-10-01T10:43:35.732Z,74.79
2018-10-01T10:46:04.942Z,74.82
2018-10-01T10:48:34.101Z,74.73
2018-10-01T10:51:03.269Z,76.15
2018-10-01T10:53:32.814Z,75.92
2018-10-01T10:56:02.055Z,74.91
2018-10-01T10:58:31.191Z,74.01
2018-10-01T11:01:00.392Z,73.07
2018-10-01T11:03:29.536Z,73.21
2018-10-01T11:05:58.724Z,72.10
2018-10-01T11:08:27.993Z,69.30
2018-10-01T11:10:57.197Z,68.95
2018-10-01T11:13:26.380Z,68.42
2018-10-01T11:15:55.537Z,69.72
2018-10-01T11:18:24.798Z,69.12
2018-10-01T11:20:54.059Z,70.48
2018-10-01T11:23:23.216Z,71.89
2018-10-01T11:25:52.384Z,72.59
2018-10-01T11:28:21.581Z,73.48
2018-10-01T11:30:50.839Z,73.14
2018-10-01T11:33:20.093Z,72.14
2018-10-01T11:35:49.400Z,70.75
2018-10-01T11:38:18.590Z,70.32
2018-10-01T11:40:47.755Z,70.38
2018-10-01T11:43:16.937Z,70.24
2018-10-01T11:45:46.898Z,70.48
2018-10-01T11:48:15.982Z,69.99
2018-10-01T11:50:45.468Z,70.32
2018-10-01T11:53:14.675Z,70.56
2018-10-01T11:55:43.929Z,70.13
2018-10-01T11:58:13.108Z,71.47
2018-10-01T12:00:42.711Z,72.06
2018-10-01T12:03:11.934Z,70.01
2018-10-01T12:05:41.096Z,68.43
2018-10-01T12:08:10.287Z,68.61
2018-10-01T12:10:39.497Z,67.85
2018-10-01T12:13:08.669Z,67.04
2018-10-01T12:15:38.754Z,66.55
2018-10-01T12:18:08.196Z,64.77
2018-10-01T12:20:37.551Z,64.62
2018-10-01T12:23:06.943Z,65.47
2018-10-01T12:25:36.126Z,65.42
2018-10-01T12:28:05.400Z,65.35
2018-10-01T12:30:34.619Z,64.21
2018-10-01T12:33:03.789Z,64.51
2018-10-01T12:35:32.984Z,64.06
2018-10-01T12:38:02.160Z,64.84
2018-10-01T12:40:36.845Z,64.64
2018-10-01T12:43:09.880Z,65.31
2018-10-01T12:45:44.480Z,65.70
2018-10-01T12:48:20.017Z,65.81
2018-10-01T12:50:49.856Z,64.94
2018-10-01T12:53:19.057Z,65.73
2018-10-01T12:55:48.192Z,64.49
2018-10-01T12:58:17.299Z,65.03
2018-10-01T13:00:47.016Z,65.16
2018-10-01T13:03:16.188Z,65.74
2018-10-01T13:05:45.307Z,66.60
2018-10-01T13:08:14.504Z,66.97
2018-10-01T13:10:43.653Z,68.40
2018-10-01T13:13:12.796Z,69.29
2018-10-01T13:15:41.988Z,69.89
2018-10-01T13:18:11.617Z,69.38
2018-10-01T13:20:40.777Z,70.68
2018-10-01T13:23:10.600Z,70.19
2018-10-01T13:25:45.312Z,69.59
2018-10-01T13:28:14.524Z,68.76
2018-10-01T13:30:43.699Z,68.97
2018-10-01T13:33:12.827Z,69.04
2018-10-01T13:35:42.026Z,68.26
2018-10-01T13:38:11.155Z,68.86
2018-10-01T13:40:40.312Z,68.73
2018-10-01T13:43:09.500Z,69.53
2018-10-01T13:45:38.641Z,69.41
2018-10-01T13:48:07.897Z,69.00
2018-10-01T13:50:36.940Z,69.58
2018-10-01T13:53:06.164Z,69.14
2018-10-01T13:55:35.284Z,70.46
2018-10-01T13:58:04.522Z,69.45
2018-10-01T14:00:33.709Z,69.05
2018-10-01T14:03:02.912Z,69.19
2018-10-01T14:05:32.122Z,69.85
2018-10-01T14:08:01.325Z,67.79
2018-10-01T14:10:30.425Z,67.62
2018-10-01T14:12:59.583Z,68.43
2018-10-01T14:15:28.712Z,67.51
2018-10-01T14:17:58.127Z,66.44
2018-10-01T14:20:27.931Z,66.76
2018-10-01T14:22:57.336Z,66.71
2018-10-01T14:25:26.948Z,66.74
2018-10-01T14:27:56.128Z,67.01
2018-10-01T14:30:25.439Z,66.40
2018-10-01T14:32:55.256Z,67.04
2018-10-01T14:35:24.496Z,66.69
2018-10-01T14:37:53.612Z,67.31
2018-10-01T14:40:22.809Z,67.44
2018-10-01T14:42:53.125Z,66.93
2018-10-01T14:45:22.697Z,66.03
2018-10-01T14:47:51.856Z,66.22
2018-10-01T14:50:21.139Z,67.04
2018-10-01T14:52:50.271Z,66.88
2018-10-01T14:55:19.417Z,68.11
2018-10-01T14:57:48.748Z,69.20
2018-10-01T15:00:17.901Z,67.79
2018-10-01T15:02:47.111Z,68.81
2018-10-01T15:05:16.282Z,68.94
2018-10-01T15:07:45.412Z,69.03
2018-10-01T15:10:14.664Z,69.70
2018-10-01T15:12:43.880Z,69.46
2018-10-01T15:15:13.115Z,69.88
2018-10-01T15:17:42.560Z,69.24
2018-10-01T15:20:11.774Z,69.88
2018-10-01T15:22:40.952Z,69.28
2018-10-01T15:25:10.261Z,69.08
2018-10-01T15:27:39.401Z,68.48
2018-10-01T15:30:08.831Z,68.61
2018-10-01T15:32:37.972Z,69.42
2018-10-01T15:35:07.174Z,69.44
2018-10-01T15:37:36.296Z,70.05
2018-10-01T15:40:05.549Z,70.65
2018-10-01T15:42:34.726Z,70.40
2018-10-01T15:45:04.078Z,70.86
2018-10-01T15:47:33.206Z,70.27
2018-10-01T15:50:02.448Z,71.36
2018-10-01T15:52:31.520Z,71.78
2018-10-01T15:55:00.664Z,72.33
2018-10-01T15:57:30.373Z,74.38
2018-10-01T16:00:00.277Z,75.73
2018-10-01T16:02:29.671Z,75.94
2018-10-01T16:04:58.856Z,76.88
2018-10-01T16:07:28.152Z,76.65
2018-10-01T16:09:57.316Z,74.97
2018-10-01T16:12:26.481Z,75.05
2018-10-01T16:14:56.049Z,74.38
2018-10-01T16:17:25.138Z,74.23
2018-10-01T16:19:54.362Z,74.05
2018-10-01T16:22:23.561Z,74.34
2018-10-01T16:24:52.738Z,75.11
2018-10-01T16:27:21.987Z,76.09
2018-10-01T16:29:51.100Z,77.19
2018-10-01T16:32:20.276Z,78.07
2018-10-01T16:34:49.379Z,78.57
2018-10-01T16:37:18.553Z,78.90
2018-10-01T16:39:47.656Z,79.18
2018-10-01T16:42:16.874Z,80.04
2018-10-01T16:44:45.970Z,80.82
2018-10-01T16:47:15.097Z,80.98
2018-10-01T16:49:44.592Z,80.80
2018-10-01T16:52:13.760Z,80.50
2018-10-01T16:54:42.922Z,80.71
2018-10-01T16:57:12.192Z,81.11
2018-10-01T16:59:41.306Z,81.54
2018-10-01T17:02:10.444Z,81.46
2018-10-01T17:04:40.440Z,81.17
2018-10-01T17:07:09.648Z,81.43
2018-10-01T17:09:38.945Z,81.62
2018-10-01T17:12:08.256Z,82.33
2018-10-01T17:14:37.571Z,82.00
2018-10-01T17:17:06.953Z,82.13
2018-10-01T17:19:36.112Z,82.01
2018-10-01T17:22:05.320Z,82.22
2018-10-01T17:24:34.613Z,81.69
2018-10-01T17:27:04.537Z,82.27
2018-10-01T17:29:33.724Z,82.24
2018-10-01T17:32:03.674Z,82.48
2018-10-01T17:34:32.852Z,82.32
2018-10-01T17:37:03.994Z,82.28
2018-10-01T17:39:33.143Z,82.12
2018-10-01T17:42:02.556Z,82.31
2018-10-01T17:44:31.688Z,82.56
2018-10-01T17:47:00.812Z,82.49
2018-10-01T17:49:29.926Z,82.06
2018-10-01T17:52:01.659Z,82.14
2018-10-01T17:54:30.862Z,82.12
2018-10-01T17:57:00.102Z,81.71
2018-10-01T17:59:29.249Z,81.78
2018-10-01T18:01:58.421Z,81.68
2018-10-01T18:04:28.510Z,81.90
2018-10-01T18:06:57.640Z,81.72
2018-10-01T18:09:26.752Z,81.91
2018-10-01T18:11:55.981Z,82.88
2018-10-01T18:14:25.050Z,82.84
2018-10-01T18:16:54.396Z,83.59
2018-10-01T18:19:23.496Z,83.71
2018-10-01T18:21:53.614Z,83.31
2018-10-01T18:24:22.772Z,83.43
2018-10-01T18:26:51.851Z,83.47
2018-10-01T18:29:21.112Z,83.32
2018-10-01T18:31:50.232Z,83.29
2018-10-01T18:34:19.373Z,83.39
2018-10-01T18:36:48.523Z,83.14
2018-10-01T18:39:22.155Z,83.06
2018-10-01T18:41:51.357Z,83.09
2018-10-01T18:44:20.524Z,83.10
2018-10-01T18:46:49.828Z,82.37
2018-10-01T18:49:19.080Z,82.33
2018-10-01T18:51:48.351Z,82.26
2018-10-01T18:54:17.652Z,82.20
2018-10-01T18:56:46.753Z,82.63
2018-10-01T18:59:15.957Z,82.82
2018-10-01T19:01:45.188Z,82.92
2018-10-01T19:04:14.427Z,82.70
2018-10-01T19:06:43.993Z,83.18
2018-10-01T19:09:13.379Z,82.72
2018-10-01T19:11:42.888Z,82.91
2018-10-01T19:14:12.080Z,82.79
2018-10-01T19:16:41.365Z,82.54
2018-10-01T19:19:10.540Z,83.14
2018-10-01T19:21:39.730Z,83.55
2018-10-01T19:24:08.945Z,83.91
2018-10-01T19:26:38.136Z,83.82
2018-10-01T19:29:07.273Z,83.56
2018-10-01T19:31:36.564Z,83.62
2018-10-01T19:34:05.822Z,84.03
2018-10-01T19:36:35.026Z,84.06
2018-10-01T19:39:05.463Z,83.98
2018-10-01T19:41:34.609Z,83.50
2018-10-01T19:44:03.978Z,83.81
2018-10-01T19:46:33.092Z,83.71
2018-10-01T19:49:02.640Z,83.66
2018-10-01T19:51:31.799Z,83.66
2018-10-01T19:54:00.969Z,83.35
2018-10-01T19:56:30.244Z,83.19
2018-10-01T19:58:59.507Z,83.15
2018-10-01T20:01:28.596Z,82.75
2018-10-01T20:03:57.915Z,82.88
2018-10-01T20:06:27.091Z,82.61
2018-10-01T20:08:56.345Z,82.78
2018-10-01T20:11:25.547Z,82.55
2018-10-01T20:13:54.612Z,82.60
2018-10-01T20:16:23.848Z,82.75
2018-10-01T20:18:52.969Z,82.34
2018-10-01T20:21:22.161Z,82.43
2018-10-01T20:23:51.330Z,82.06
2018-10-01T20:26:20.540Z,82.32
2018-10-01T20:28:50.055Z,82.38
2018-10-01T20:31:18.924Z,82.66
2018-10-01T20:33:48.189Z,82.46
2018-10-01T20:36:17.432Z,82.83
2018-10-01T20:38:46.673Z,82.59
2018-10-01T20:41:15.787Z,82.73
2018-10-01T20:43:45.040Z,82.88
2018-10-01T20:46:14.209Z,83.20
2018-10-01T20:48:43.358Z,83.04
2018-10-01T20:51:12.562Z,82.80
2018-10-01T20:53:45.725Z,83.33
2018-10-01T20:56:15.511Z,83.32
2018-10-01T20:58:44.707Z,83.45
2018-10-01T21:01:13.910Z,83.57
2018-10-01T21:03:43.077Z,83.53
2018-10-01T21:06:12.323Z,83.89
2018-10-01T21:08:41.647Z,83.94
2018-10-01T21:11:10.813Z,84.17
2018-10-01T21:13:40.087Z,84.07
2018-10-01T21:16:09.331Z,84.63
2018-10-01T21:18:38.582Z,84.51
2018-10-01T21:21:07.856Z,84.36
2018-10-01T21:23:37.100Z,84.61
2018-10-01T21:26:06.636Z,84.82
2018-10-01T21:28:35.909Z,84.54
2018-10-01T21:31:05.090Z,84.52
2018-10-01T21:33:34.357Z,84.91
2018-10-01T21:36:03.654Z,84.56
2018-10-01T21:38:32.901Z,84.84
2018-10-01T21:41:02.217Z,84.94
2018-10-01T21:43:31.367Z,84.36
2018-10-01T21:46:00.584Z,84.84
2018-10-01T21:48:29.781Z,84.61
2018-10-01T21:50:59.012Z,84.28
2018-10-01T21:53:28.248Z,84.51
2018-10-01T21:55:57.520Z,84.42
2018-10-01T21:58:26.866Z,84.12
2018-10-01T22:01:01.313Z,84.02
2018-10-01T22:03:30.466Z,83.55
2018-10-01T22:05:59.679Z,83.62
2018-10-01T22:08:28.816Z,83.68
2018-10-01T22:10:58.100Z,83.31
2018-10-01T22:13:27.321Z,83.37
2018-10-01T22:15:56.589Z,83.29
2018-10-01T22:18:26.788Z,82.94
2018-10-01T22:20:55.979Z,82.83
2018-10-01T22:23:25.262Z,82.81
2018-10-01T22:25:54.450Z,82.93
2018-10-01T22:28:23.609Z,82.89
2018-10-01T22:30:52.800Z,83.07
2018-10-01T22:33:22.012Z,83.15
2018-10-01T22:35:51.243Z,83.31
2018-10-01T22:38:20.454Z,83.41
2018-10-01T22:40:49.703Z,83.10
2018-10-01T22:43:18.886Z,83.23
2018-10-01T22:45:48.160Z,83.25
2018-10-01T22:48:17.309Z,83.13
2018-10-01T22:50:46.716Z,83.26
2018-10-01T22:53:15.913Z,83.69
2018-10-01T22:55:45.156Z,83.49
2018-10-01T22:58:14.355Z,83.88
2018-10-01T23:00:43.533Z,83.56
2018-10-01T23:03:12.744Z,83.61
2018-10-01T23:05:42.199Z,83.82
2018-10-01T23:08:11.364Z,83.79
2018-10-01T23:10:40.493Z,83.92
2018-10-01T23:13:09.669Z,84.03
2018-10-01T23:15:38.800Z,83.58
2018-10-01T23:18:08.012Z,83.99
2018-10-01T23:20:37.335Z,83.78
2018-10-01T23:23:06.573Z,83.86
2018-10-01T23:25:35.757Z,83.86
2018-10-01T23:28:04.896Z,83.99
2018-10-01T23:30:34.062Z,83.77
2018-10-01T23:33:03.773Z,83.95
2018-10-01T23:35:32.886Z,83.98
2018-10-01T23:38:02.114Z,84.11
2018-10-01T23:40:31.402Z,83.85
2018-10-01T23:43:00.631Z,84.09
2018-10-01T23:45:29.851Z,84.25
2018-10-01T23:47:59.009Z,83.56
2018-10-01T23:50:28.223Z,83.98
2018-10-01T23:52:57.371Z,83.85
2018-10-01T23:55:26.623Z,83.77
2018-10-01T23:57:55.746Z,83.86
